sensor_id;sensor_type;location;lat;lon;timestamp;temperature;humidity
18388;DHT22;9320;50.256;19.026;2022-07-22T00:01:58;22.50;70.50
18388;DHT22;9320;50.256;19.026;2022-07-22T00:04:26;22.60;69.50
18388;DHT22;9320;50.256;19.026;2022-07-22T00:06:55;22.60;68.50
18388;DHT22;9320;50.256;19.026;2022-07-22T00:09:23;22.60;68.20
18388;DHT22;9320;50.256;19.026;2022-07-22T00:11:53;22.60;67.90
18388;DHT22;9320;50.256;19.026;2022-07-22T00:14:21;22.50;67.80
18388;DHT22;9320;50.256;19.026;2022-07-22T00:16:50;22.50;67.90
18388;DHT22;9320;50.256;19.026;2022-07-22T00:19:18;22.50;68.20
18388;DHT22;9320;50.256;19.026;2022-07-22T00:21:46;22.50;68.40
18388;DHT22;9320;50.256;19.026;2022-07-22T00:24:14;22.60;68.70
18388;DHT22;9320;50.256;19.026;2022-07-22T00:26:43;22.50;68.70
18388;DHT22;9320;50.256;19.026;2022-07-22T00:29:12;22.50;69.20
18388;DHT22;9320;50.256;19.026;2022-07-22T00:31:41;22.40;69.80
18388;DHT22;9320;50.256;19.026;2022-07-22T00:34:09;22.40;70.00
18388;DHT22;9320;50.256;19.026;2022-07-22T00:36:37;22.30;70.20
18388;DHT22;9320;50.256;19.026;2022-07-22T00:39:06;22.20;70.10
18388;DHT22;9320;50.256;19.026;2022-07-22T00:41:34;22.30;70.30
18388;DHT22;9320;50.256;19.026;2022-07-22T00:44:05;22.20;70.20
18388;DHT22;9320;50.256;19.026;2022-07-22T00:46:37;22.20;70.70
18388;DHT22;9320;50.256;19.026;2022-07-22T00:49:07;22.20;70.90
18388;DHT22;9320;50.256;19.026;2022-07-22T00:51:36;22.10;71.00
18388;DHT22;9320;50.256;19.026;2022-07-22T00:54:06;22.10;70.90
18388;DHT22;9320;50.256;19.026;2022-07-22T00:56:35;22.10;71.30
18388;DHT22;9320;50.256;19.026;2022-07-22T00:59:07;22.10;71.30
18388;DHT22;9320;50.256;19.026;2022-07-22T01:01:37;22.10;71.20
18388;DHT22;9320;50.256;19.026;2022-07-22T01:04:05;22.10;71.10
18388;DHT22;9320;50.256;19.026;2022-07-22T01:06:34;22.10;71.10
18388;DHT22;9320;50.256;19.026;2022-07-22T01:09:03;22.10;71.30
18388;DHT22;9320;50.256;19.026;2022-07-22T01:11:32;22.20;71.40
18388;DHT22;9320;50.256;19.026;2022-07-22T01:14:00;22.10;71.30
18388;DHT22;9320;50.256;19.026;2022-07-22T01:16:29;22.10;71.70
18388;DHT22;9320;50.256;19.026;2022-07-22T01:18:59;22.10;71.60
18388;DHT22;9320;50.256;19.026;2022-07-22T01:21:29;22.10;71.80
18388;DHT22;9320;50.256;19.026;2022-07-22T01:23:57;22.10;71.70
18388;DHT22;9320;50.256;19.026;2022-07-22T01:26:26;22.10;71.80
18388;DHT22;9320;50.256;19.026;2022-07-22T01:28:54;22.10;71.80
18388;DHT22;9320;50.256;19.026;2022-07-22T01:31:23;22.10;71.80
18388;DHT22;9320;50.256;19.026;2022-07-22T01:33:51;22.10;71.70
18388;DHT22;9320;50.256;19.026;2022-07-22T01:36:20;22.10;72.50
18388;DHT22;9320;50.256;19.026;2022-07-22T01:38:49;22.10;72.70
18388;DHT22;9320;50.256;19.026;2022-07-22T01:41:18;22.10;73.00
18388;DHT22;9320;50.256;19.026;2022-07-22T01:43:46;22.10;73.30
18388;DHT22;9320;50.256;19.026;2022-07-22T01:46:14;22.00;73.50
18388;DHT22;9320;50.256;19.026;2022-07-22T01:48:44;22.00;73.50
18388;DHT22;9320;50.256;19.026;2022-07-22T01:51:12;22.00;73.60
18388;DHT22;9320;50.256;19.026;2022-07-22T01:53:41;22.00;73.50
18388;DHT22;9320;50.256;19.026;2022-07-22T01:56:10;21.90;74.20
18388;DHT22;9320;50.256;19.026;2022-07-22T01:58:38;21.90;74.50
18388;DHT22;9320;50.256;19.026;2022-07-22T02:01:07;21.90;74.50
18388;DHT22;9320;50.256;19.026;2022-07-22T02:03:35;21.80;74.60
18388;DHT22;9320;50.256;19.026;2022-07-22T02:06:04;21.80;74.90
18388;DHT22;9320;50.256;19.026;2022-07-22T02:08:33;21.80;75.10
18388;DHT22;9320;50.256;19.026;2022-07-22T02:11:01;21.80;75.60
18388;DHT22;9320;50.256;19.026;2022-07-22T02:13:31;21.80;75.20
18388;DHT22;9320;50.256;19.026;2022-07-22T02:15:59;21.80;75.60
18388;DHT22;9320;50.256;19.026;2022-07-22T02:18:27;21.80;76.60
18388;DHT22;9320;50.256;19.026;2022-07-22T02:20:55;21.70;76.40
18388;DHT22;9320;50.256;19.026;2022-07-22T02:23:23;21.70;76.60
18388;DHT22;9320;50.256;19.026;2022-07-22T02:25:52;21.70;76.70
18388;DHT22;9320;50.256;19.026;2022-07-22T02:28:20;21.70;76.90
18388;DHT22;9320;50.256;19.026;2022-07-22T02:30:50;21.70;76.60
18388;DHT22;9320;50.256;19.026;2022-07-22T02:33:19;21.80;76.70
18388;DHT22;9320;50.256;19.026;2022-07-22T02:35:47;21.90;76.70
18388;DHT22;9320;50.256;19.026;2022-07-22T02:38:16;22.00;76.70
18388;DHT22;9320;50.256;19.026;2022-07-22T02:40:44;22.00;76.60
18388;DHT22;9320;50.256;19.026;2022-07-22T02:43:12;22.10;76.80
18388;DHT22;9320;50.256;19.026;2022-07-22T02:45:41;22.10;77.30
18388;DHT22;9320;50.256;19.026;2022-07-22T02:48:10;22.10;77.80
18388;DHT22;9320;50.256;19.026;2022-07-22T02:50:45;22.00;78.50
18388;DHT22;9320;50.256;19.026;2022-07-22T02:53:13;21.90;79.00
18388;DHT22;9320;50.256;19.026;2022-07-22T02:55:42;21.90;80.10
18388;DHT22;9320;50.256;19.026;2022-07-22T02:58:10;21.80;80.70
18388;DHT22;9320;50.256;19.026;2022-07-22T03:00:38;21.70;80.80
18388;DHT22;9320;50.256;19.026;2022-07-22T03:03:07;21.60;81.90
18388;DHT22;9320;50.256;19.026;2022-07-22T03:05:36;21.60;83.00
18388;DHT22;9320;50.256;19.026;2022-07-22T03:08:05;21.50;83.40
18388;DHT22;9320;50.256;19.026;2022-07-22T03:10:33;21.50;82.80
18388;DHT22;9320;50.256;19.026;2022-07-22T03:13:01;21.40;84.20
18388;DHT22;9320;50.256;19.026;2022-07-22T03:15:30;21.50;83.50
18388;DHT22;9320;50.256;19.026;2022-07-22T03:17:58;21.50;84.80
18388;DHT22;9320;50.256;19.026;2022-07-22T03:20:26;21.50;85.10
18388;DHT22;9320;50.256;19.026;2022-07-22T03:22:56;21.60;86.00
18388;DHT22;9320;50.256;19.026;2022-07-22T03:25:24;21.60;86.60
18388;DHT22;9320;50.256;19.026;2022-07-22T03:27:52;21.60;86.80
18388;DHT22;9320;50.256;19.026;2022-07-22T03:30:20;21.60;86.90
18388;DHT22;9320;50.256;19.026;2022-07-22T03:32:49;21.60;86.70
18388;DHT22;9320;50.256;19.026;2022-07-22T03:35:17;21.60;87.70
18388;DHT22;9320;50.256;19.026;2022-07-22T03:37:45;21.60;88.20
18388;DHT22;9320;50.256;19.026;2022-07-22T03:40:15;21.60;89.80
18388;DHT22;9320;50.256;19.026;2022-07-22T03:42:43;21.60;89.50
18388;DHT22;9320;50.256;19.026;2022-07-22T03:45:12;21.70;90.20
18388;DHT22;9320;50.256;19.026;2022-07-22T03:47:41;21.70;90.00
18388;DHT22;9320;50.256;19.026;2022-07-22T03:50:09;21.70;90.80
18388;DHT22;9320;50.256;19.026;2022-07-22T03:52:38;21.60;91.30
18388;DHT22;9320;50.256;19.026;2022-07-22T03:55:06;21.60;91.20
18388;DHT22;9320;50.256;19.026;2022-07-22T03:57:36;21.60;92.10
18388;DHT22;9320;50.256;19.026;2022-07-22T04:00:05;21.60;92.10
18388;DHT22;9320;50.256;19.026;2022-07-22T04:02:33;21.70;92.30
18388;DHT22;9320;50.256;19.026;2022-07-22T04:05:02;21.70;92.00
18388;DHT22;9320;50.256;19.026;2022-07-22T04:07:30;21.80;92.00
18388;DHT22;9320;50.256;19.026;2022-07-22T04:09:58;21.90;92.20
18388;DHT22;9320;50.256;19.026;2022-07-22T04:12:33;21.90;92.00
18388;DHT22;9320;50.256;19.026;2022-07-22T04:15:04;22.00;92.00
18388;DHT22;9320;50.256;19.026;2022-07-22T04:17:33;22.10;91.90
18388;DHT22;9320;50.256;19.026;2022-07-22T04:20:01;22.10;91.50
18388;DHT22;9320;50.256;19.026;2022-07-22T04:22:30;22.20;91.50
18388;DHT22;9320;50.256;19.026;2022-07-22T04:24:58;22.30;91.40
18388;DHT22;9320;50.256;19.026;2022-07-22T04:27:26;22.30;91.30
18388;DHT22;9320;50.256;19.026;2022-07-22T04:29:54;22.40;90.50
18388;DHT22;9320;50.256;19.026;2022-07-22T04:32:24;22.50;90.80
18388;DHT22;9320;50.256;19.026;2022-07-22T04:34:52;22.50;90.50
18388;DHT22;9320;50.256;19.026;2022-07-22T04:37:20;22.50;90.60
18388;DHT22;9320;50.256;19.026;2022-07-22T04:39:48;22.50;90.30
18388;DHT22;9320;50.256;19.026;2022-07-22T04:42:17;22.50;90.20
18388;DHT22;9320;50.256;19.026;2022-07-22T04:44:45;22.50;90.40
18388;DHT22;9320;50.256;19.026;2022-07-22T04:47:14;22.50;90.40
18388;DHT22;9320;50.256;19.026;2022-07-22T04:49:43;22.50;90.20
18388;DHT22;9320;50.256;19.026;2022-07-22T04:52:11;22.50;90.30
18388;DHT22;9320;50.256;19.026;2022-07-22T04:54:40;22.40;90.30
18388;DHT22;9320;50.256;19.026;2022-07-22T04:57:08;22.40;90.40
18388;DHT22;9320;50.256;19.026;2022-07-22T04:59:36;22.30;90.60
18388;DHT22;9320;50.256;19.026;2022-07-22T05:02:04;22.40;90.60
18388;DHT22;9320;50.256;19.026;2022-07-22T05:04:33;22.40;90.30
18388;DHT22;9320;50.256;19.026;2022-07-22T05:07:03;22.40;90.60
18388;DHT22;9320;50.256;19.026;2022-07-22T05:09:31;22.50;90.40
18388;DHT22;9320;50.256;19.026;2022-07-22T05:11:59;22.60;90.40
18388;DHT22;9320;50.256;19.026;2022-07-22T05:14:27;22.60;90.00
18388;DHT22;9320;50.256;19.026;2022-07-22T05:16:56;22.80;90.00
18388;DHT22;9320;50.256;19.026;2022-07-22T05:19:24;22.90;89.40
18388;DHT22;9320;50.256;19.026;2022-07-22T05:21:52;23.00;88.30
18388;DHT22;9320;50.256;19.026;2022-07-22T05:24:22;23.20;87.70
18388;DHT22;9320;50.256;19.026;2022-07-22T05:26:50;23.50;86.50
18388;DHT22;9320;50.256;19.026;2022-07-22T05:29:18;23.70;85.10
18388;DHT22;9320;50.256;19.026;2022-07-22T05:31:46;24.00;84.30
18388;DHT22;9320;50.256;19.026;2022-07-22T05:34:15;24.20;82.80
18388;DHT22;9320;50.256;19.026;2022-07-22T05:36:43;24.30;82.30
18388;DHT22;9320;50.256;19.026;2022-07-22T05:39:11;24.50;81.70
18388;DHT22;9320;50.256;19.026;2022-07-22T05:41:41;24.60;80.70
18388;DHT22;9320;50.256;19.026;2022-07-22T05:44:09;24.60;80.30
18388;DHT22;9320;50.256;19.026;2022-07-22T05:46:37;24.70;79.90
18388;DHT22;9320;50.256;19.026;2022-07-22T05:49:06;24.80;79.50
18388;DHT22;9320;50.256;19.026;2022-07-22T05:51:34;24.90;79.00
18388;DHT22;9320;50.256;19.026;2022-07-22T05:54:03;25.00;78.60
18388;DHT22;9320;50.256;19.026;2022-07-22T05:56:31;24.90;78.90
18388;DHT22;9320;50.256;19.026;2022-07-22T05:59:01;24.90;78.80
18388;DHT22;9320;50.256;19.026;2022-07-22T06:01:29;25.00;78.20
18388;DHT22;9320;50.256;19.026;2022-07-22T06:03:57;25.10;78.70
18388;DHT22;9320;50.256;19.026;2022-07-22T06:06:26;25.00;77.60
18388;DHT22;9320;50.256;19.026;2022-07-22T06:08:54;25.10;77.50
18388;DHT22;9320;50.256;19.026;2022-07-22T06:11:22;25.20;77.20
18388;DHT22;9320;50.256;19.026;2022-07-22T06:13:51;25.30;76.70
18388;DHT22;9320;50.256;19.026;2022-07-22T06:16:20;25.40;76.60
18388;DHT22;9320;50.256;19.026;2022-07-22T06:18:49;25.50;76.00
18388;DHT22;9320;50.256;19.026;2022-07-22T06:21:17;25.70;75.40
18388;DHT22;9320;50.256;19.026;2022-07-22T06:23:45;25.80;74.80
18388;DHT22;9320;50.256;19.026;2022-07-22T06:26:13;25.90;74.70
18388;DHT22;9320;50.256;19.026;2022-07-22T06:28:41;26.00;74.60
18388;DHT22;9320;50.256;19.026;2022-07-22T06:31:10;26.00;74.40
18388;DHT22;9320;50.256;19.026;2022-07-22T06:33:39;25.90;74.10
18388;DHT22;9320;50.256;19.026;2022-07-22T06:36:08;25.80;74.20
18388;DHT22;9320;50.256;19.026;2022-07-22T06:38:36;25.40;75.20
18388;DHT22;9320;50.256;19.026;2022-07-22T06:41:07;25.30;75.70
18388;DHT22;9320;50.256;19.026;2022-07-22T06:43:36;25.30;76.00
18388;DHT22;9320;50.256;19.026;2022-07-22T06:46:04;25.20;75.80
18388;DHT22;9320;50.256;19.026;2022-07-22T06:48:32;25.40;76.00
18388;DHT22;9320;50.256;19.026;2022-07-22T06:51:03;25.60;75.30
18388;DHT22;9320;50.256;19.026;2022-07-22T06:53:32;25.80;75.10
18388;DHT22;9320;50.256;19.026;2022-07-22T06:56:00;26.20;73.90
18388;DHT22;9320;50.256;19.026;2022-07-22T06:58:33;26.30;73.00
18388;DHT22;9320;50.256;19.026;2022-07-22T07:01:02;26.40;72.70
18388;DHT22;9320;50.256;19.026;2022-07-22T07:03:30;26.50;72.70
18388;DHT22;9320;50.256;19.026;2022-07-22T07:06:03;26.60;72.20
18388;DHT22;9320;50.256;19.026;2022-07-22T07:08:32;26.50;72.40
18388;DHT22;9320;50.256;19.026;2022-07-22T07:11:01;26.60;72.30
18388;DHT22;9320;50.256;19.026;2022-07-22T07:13:29;26.80;71.70
18388;DHT22;9320;50.256;19.026;2022-07-22T07:15:58;26.90;71.10
18388;DHT22;9320;50.256;19.026;2022-07-22T07:18:26;26.90;71.00
18388;DHT22;9320;50.256;19.026;2022-07-22T07:20:54;26.90;70.80
18388;DHT22;9320;50.256;19.026;2022-07-22T07:23:24;27.00;70.90
18388;DHT22;9320;50.256;19.026;2022-07-22T07:25:52;27.30;70.30
18388;DHT22;9320;50.256;19.026;2022-07-22T07:28:21;27.60;69.20
18388;DHT22;9320;50.256;19.026;2022-07-22T07:30:49;27.80;68.00
18388;DHT22;9320;50.256;19.026;2022-07-22T07:33:18;27.90;67.60
18388;DHT22;9320;50.256;19.026;2022-07-22T07:35:47;27.60;68.10
18388;DHT22;9320;50.256;19.026;2022-07-22T07:38:15;27.50;68.50
18388;DHT22;9320;50.256;19.026;2022-07-22T07:40:44;27.70;68.30
18388;DHT22;9320;50.256;19.026;2022-07-22T07:43:13;27.60;68.40
18388;DHT22;9320;50.256;19.026;2022-07-22T07:45:41;27.70;68.50
18388;DHT22;9320;50.256;19.026;2022-07-22T07:48:09;27.90;68.10
18388;DHT22;9320;50.256;19.026;2022-07-22T07:50:38;28.00;67.90
18388;DHT22;9320;50.256;19.026;2022-07-22T07:53:06;28.20;67.20
18388;DHT22;9320;50.256;19.026;2022-07-22T07:55:34;28.20;66.80
18388;DHT22;9320;50.256;19.026;2022-07-22T07:58:07;28.10;66.70
18388;DHT22;9320;50.256;19.026;2022-07-22T08:00:36;28.20;66.30
18388;DHT22;9320;50.256;19.026;2022-07-22T08:03:06;28.30;66.30
18388;DHT22;9320;50.256;19.026;2022-07-22T08:05:36;28.30;66.40
18388;DHT22;9320;50.256;19.026;2022-07-22T08:08:07;28.10;67.00
18388;DHT22;9320;50.256;19.026;2022-07-22T08:10:41;28.00;67.80
18388;DHT22;9320;50.256;19.026;2022-07-22T08:13:29;28.20;67.60
18388;DHT22;9320;50.256;19.026;2022-07-22T08:15:58;28.40;67.00
18388;DHT22;9320;50.256;19.026;2022-07-22T08:18:29;28.30;67.10
18388;DHT22;9320;50.256;19.026;2022-07-22T08:20:57;28.30;67.30
18388;DHT22;9320;50.256;19.026;2022-07-22T08:23:26;28.20;66.80
18388;DHT22;9320;50.256;19.026;2022-07-22T08:25:55;28.40;66.20
18388;DHT22;9320;50.256;19.026;2022-07-22T08:28:24;28.40;65.50
18388;DHT22;9320;50.256;19.026;2022-07-22T08:30:54;28.50;65.70
18388;DHT22;9320;50.256;19.026;2022-07-22T08:33:22;28.70;64.70
18388;DHT22;9320;50.256;19.026;2022-07-22T08:35:51;28.70;64.60
18388;DHT22;9320;50.256;19.026;2022-07-22T08:38:19;28.70;64.50
18388;DHT22;9320;50.256;19.026;2022-07-22T08:40:48;28.70;64.20
18388;DHT22;9320;50.256;19.026;2022-07-22T08:43:17;28.90;63.70
18388;DHT22;9320;50.256;19.026;2022-07-22T08:45:45;29.40;63.10
18388;DHT22;9320;50.256;19.026;2022-07-22T08:48:16;30.20;61.50
18388;DHT22;9320;50.256;19.026;2022-07-22T08:50:45;30.90;59.00
18388;DHT22;9320;50.256;19.026;2022-07-22T08:53:14;31.30;58.80
18388;DHT22;9320;50.256;19.026;2022-07-22T08:55:42;32.80;56.30
18388;DHT22;9320;50.256;19.026;2022-07-22T08:58:12;33.60;53.10
18388;DHT22;9320;50.256;19.026;2022-07-22T09:00:40;34.30;51.70
18388;DHT22;9320;50.256;19.026;2022-07-22T09:03:21;33.70;52.10
18388;DHT22;9320;50.256;19.026;2022-07-22T09:05:50;33.40;52.80
18388;DHT22;9320;50.256;19.026;2022-07-22T09:08:20;33.40;52.60
18388;DHT22;9320;50.256;19.026;2022-07-22T09:10:48;33.80;51.10
18388;DHT22;9320;50.256;19.026;2022-07-22T09:13:17;34.20;50.90
18388;DHT22;9320;50.256;19.026;2022-07-22T09:15:48;34.10;50.30
18388;DHT22;9320;50.256;19.026;2022-07-22T09:18:17;33.90;50.70
18388;DHT22;9320;50.256;19.026;2022-07-22T09:20:47;33.60;51.60
18388;DHT22;9320;50.256;19.026;2022-07-22T09:23:17;33.60;51.40
18388;DHT22;9320;50.256;19.026;2022-07-22T09:25:49;34.00;51.50
18388;DHT22;9320;50.256;19.026;2022-07-22T09:28:20;34.40;51.50
18388;DHT22;9320;50.256;19.026;2022-07-22T09:30:53;35.10;49.60
18388;DHT22;9320;50.256;19.026;2022-07-22T09:33:24;36.60;47.90
18388;DHT22;9320;50.256;19.026;2022-07-22T09:36:01;38.30;44.20
18388;DHT22;9320;50.256;19.026;2022-07-22T09:38:31;38.50;43.20
18388;DHT22;9320;50.256;19.026;2022-07-22T09:41:03;38.80;42.80
18388;DHT22;9320;50.256;19.026;2022-07-22T09:43:35;39.80;41.60
18388;DHT22;9320;50.256;19.026;2022-07-22T09:46:04;40.10;40.60
18388;DHT22;9320;50.256;19.026;2022-07-22T09:48:33;39.30;41.80
18388;DHT22;9320;50.256;19.026;2022-07-22T09:51:04;40.40;40.30
18388;DHT22;9320;50.256;19.026;2022-07-22T09:53:34;42.20;38.50
18388;DHT22;9320;50.256;19.026;2022-07-22T09:56:04;43.20;35.80
18388;DHT22;9320;50.256;19.026;2022-07-22T09:58:33;43.40;35.30
18388;DHT22;9320;50.256;19.026;2022-07-22T10:01:05;45.00;33.40
18388;DHT22;9320;50.256;19.026;2022-07-22T10:03:35;43.70;32.90
18388;DHT22;9320;50.256;19.026;2022-07-22T10:06:08;43.40;34.40
18388;DHT22;9320;50.256;19.026;2022-07-22T10:08:41;45.20;31.30
18388;DHT22;9320;50.256;19.026;2022-07-22T10:11:11;42.80;32.70
18388;DHT22;9320;50.256;19.026;2022-07-22T10:13:42;39.60;36.70
18388;DHT22;9320;50.256;19.026;2022-07-22T10:16:12;38.20;39.60
18388;DHT22;9320;50.256;19.026;2022-07-22T10:18:46;37.00;41.50
18388;DHT22;9320;50.256;19.026;2022-07-22T10:21:32;39.60;39.70
18388;DHT22;9320;50.256;19.026;2022-07-22T10:24:09;42.20;36.30
18388;DHT22;9320;50.256;19.026;2022-07-22T10:26:49;44.90;33.40
18388;DHT22;9320;50.256;19.026;2022-07-22T10:29:28;44.10;33.00
18388;DHT22;9320;50.256;19.026;2022-07-22T10:32:22;45.20;32.10
18388;DHT22;9320;50.256;19.026;2022-07-22T10:35:22;44.60;33.70
18388;DHT22;9320;50.256;19.026;2022-07-22T10:37:57;43.40;34.60
18388;DHT22;9320;50.256;19.026;2022-07-22T10:40:27;42.20;35.80
18388;DHT22;9320;50.256;19.026;2022-07-22T10:43:10;40.60;37.30
18388;DHT22;9320;50.256;19.026;2022-07-22T10:45:44;39.20;38.60
18388;DHT22;9320;50.256;19.026;2022-07-22T10:48:14;38.30;40.30
18388;DHT22;9320;50.256;19.026;2022-07-22T10:50:46;37.10;41.70
18388;DHT22;9320;50.256;19.026;2022-07-22T10:53:20;36.30;43.00
18388;DHT22;9320;50.256;19.026;2022-07-22T10:56:18;35.90;44.60
18388;DHT22;9320;50.256;19.026;2022-07-22T10:59:08;35.50;45.30
18388;DHT22;9320;50.256;19.026;2022-07-22T11:01:38;35.30;45.00
18388;DHT22;9320;50.256;19.026;2022-07-22T11:04:12;35.00;44.40
18388;DHT22;9320;50.256;19.026;2022-07-22T11:06:45;34.70;44.50
18388;DHT22;9320;50.256;19.026;2022-07-22T11:09:17;34.60;45.30
18388;DHT22;9320;50.256;19.026;2022-07-22T11:11:47;34.60;46.00
18388;DHT22;9320;50.256;19.026;2022-07-22T11:14:20;34.20;46.80
18388;DHT22;9320;50.256;19.026;2022-07-22T11:16:49;34.00;47.40
18388;DHT22;9320;50.256;19.026;2022-07-22T11:19:23;33.70;47.60
18388;DHT22;9320;50.256;19.026;2022-07-22T11:21:53;34.00;47.90
18388;DHT22;9320;50.256;19.026;2022-07-22T11:24:23;33.90;47.90
18388;DHT22;9320;50.256;19.026;2022-07-22T11:26:54;33.80;47.90
18388;DHT22;9320;50.256;19.026;2022-07-22T11:29:32;33.60;48.10
18388;DHT22;9320;50.256;19.026;2022-07-22T11:32:04;33.60;48.00
18388;DHT22;9320;50.256;19.026;2022-07-22T11:34:36;33.40;47.90
18388;DHT22;9320;50.256;19.026;2022-07-22T11:37:04;33.40;48.10
18388;DHT22;9320;50.256;19.026;2022-07-22T11:39:34;33.20;47.20
18388;DHT22;9320;50.256;19.026;2022-07-22T11:42:04;33.20;47.00
18388;DHT22;9320;50.256;19.026;2022-07-22T11:44:34;33.20;48.00
18388;DHT22;9320;50.256;19.026;2022-07-22T11:47:04;33.30;46.90
18388;DHT22;9320;50.256;19.026;2022-07-22T11:49:34;33.20;47.80
18388;DHT22;9320;50.256;19.026;2022-07-22T11:52:04;33.00;47.70
18388;DHT22;9320;50.256;19.026;2022-07-22T11:54:35;32.90;48.50
18388;DHT22;9320;50.256;19.026;2022-07-22T11:57:04;32.70;48.60
18388;DHT22;9320;50.256;19.026;2022-07-22T11:59:33;32.70;48.70
18388;DHT22;9320;50.256;19.026;2022-07-22T12:02:02;32.70;49.50
18388;DHT22;9320;50.256;19.026;2022-07-22T12:04:31;32.70;49.50
18388;DHT22;9320;50.256;19.026;2022-07-22T12:07:00;32.70;49.80
18388;DHT22;9320;50.256;19.026;2022-07-22T12:09:32;32.60;50.50
18388;DHT22;9320;50.256;19.026;2022-07-22T12:12:03;32.60;50.30
18388;DHT22;9320;50.256;19.026;2022-07-22T12:14:33;32.50;50.40
18388;DHT22;9320;50.256;19.026;2022-07-22T12:17:03;32.40;49.60
18388;DHT22;9320;50.256;19.026;2022-07-22T12:19:33;32.30;49.80
18388;DHT22;9320;50.256;19.026;2022-07-22T12:22:04;32.10;50.40
18388;DHT22;9320;50.256;19.026;2022-07-22T12:24:35;32.00;50.90
18388;DHT22;9320;50.256;19.026;2022-07-22T12:27:06;32.10;50.70
18388;DHT22;9320;50.256;19.026;2022-07-22T12:29:42;31.90;51.30
18388;DHT22;9320;50.256;19.026;2022-07-22T12:32:15;31.80;51.40
18388;DHT22;9320;50.256;19.026;2022-07-22T12:34:46;31.80;51.90
18388;DHT22;9320;50.256;19.026;2022-07-22T12:37:16;31.80;52.00
18388;DHT22;9320;50.256;19.026;2022-07-22T12:39:55;31.80;51.60
18388;DHT22;9320;50.256;19.026;2022-07-22T12:42:25;31.80;51.70
18388;DHT22;9320;50.256;19.026;2022-07-22T12:45:00;31.80;52.20
18388;DHT22;9320;50.256;19.026;2022-07-22T12:47:43;31.80;51.90
18388;DHT22;9320;50.256;19.026;2022-07-22T12:50:23;31.90;51.50
18388;DHT22;9320;50.256;19.026;2022-07-22T12:52:53;31.80;51.50
18388;DHT22;9320;50.256;19.026;2022-07-22T12:55:43;31.60;51.90
18388;DHT22;9320;50.256;19.026;2022-07-22T12:58:14;31.60;52.30
18388;DHT22;9320;50.256;19.026;2022-07-22T13:00:47;31.70;52.40
18388;DHT22;9320;50.256;19.026;2022-07-22T13:03:16;31.70;52.60
18388;DHT22;9320;50.256;19.026;2022-07-22T13:05:46;31.80;52.50
18388;DHT22;9320;50.256;19.026;2022-07-22T13:08:15;31.80;52.00
18388;DHT22;9320;50.256;19.026;2022-07-22T13:10:43;31.80;52.10
18388;DHT22;9320;50.256;19.026;2022-07-22T13:13:13;31.90;52.10
18388;DHT22;9320;50.256;19.026;2022-07-22T13:15:42;31.80;51.20
18388;DHT22;9320;50.256;19.026;2022-07-22T13:18:10;31.80;51.60
18388;DHT22;9320;50.256;19.026;2022-07-22T13:20:38;31.70;51.50
18388;DHT22;9320;50.256;19.026;2022-07-22T13:23:06;31.70;51.80
18388;DHT22;9320;50.256;19.026;2022-07-22T13:25:36;31.80;51.90
18388;DHT22;9320;50.256;19.026;2022-07-22T13:28:04;31.80;51.90
18388;DHT22;9320;50.256;19.026;2022-07-22T13:30:34;31.90;51.50
18388;DHT22;9320;50.256;19.026;2022-07-22T13:33:03;31.90;51.60
18388;DHT22;9320;50.256;19.026;2022-07-22T13:35:31;32.00;51.40
18388;DHT22;9320;50.256;19.026;2022-07-22T13:37:59;32.00;51.50
18388;DHT22;9320;50.256;19.026;2022-07-22T13:40:29;32.00;51.40
18388;DHT22;9320;50.256;19.026;2022-07-22T13:42:57;31.90;51.50
18388;DHT22;9320;50.256;19.026;2022-07-22T13:45:26;31.90;51.80
18388;DHT22;9320;50.256;19.026;2022-07-22T13:47:56;31.90;51.90
18388;DHT22;9320;50.256;19.026;2022-07-22T13:50:25;31.80;51.80
18388;DHT22;9320;50.256;19.026;2022-07-22T13:52:53;31.70;52.10
18388;DHT22;9320;50.256;19.026;2022-07-22T13:55:21;31.60;52.30
18388;DHT22;9320;50.256;19.026;2022-07-22T13:57:50;31.60;52.50
18388;DHT22;9320;50.256;19.026;2022-07-22T14:00:18;31.60;52.40
18388;DHT22;9320;50.256;19.026;2022-07-22T14:02:46;31.70;52.60
18388;DHT22;9320;50.256;19.026;2022-07-22T14:05:16;31.70;52.30
18388;DHT22;9320;50.256;19.026;2022-07-22T14:07:44;31.70;51.70
18388;DHT22;9320;50.256;19.026;2022-07-22T14:10:12;31.60;51.70
18388;DHT22;9320;50.256;19.026;2022-07-22T14:12:41;31.60;51.80
18388;DHT22;9320;50.256;19.026;2022-07-22T14:15:10;31.60;52.10
18388;DHT22;9320;50.256;19.026;2022-07-22T14:17:41;31.60;52.00
18388;DHT22;9320;50.256;19.026;2022-07-22T14:20:11;31.60;52.00
18388;DHT22;9320;50.256;19.026;2022-07-22T14:22:41;31.60;51.70
18388;DHT22;9320;50.256;19.026;2022-07-22T14:25:09;31.60;51.60
18388;DHT22;9320;50.256;19.026;2022-07-22T14:27:38;31.60;51.70
18388;DHT22;9320;50.256;19.026;2022-07-22T14:30:07;31.50;51.60
18388;DHT22;9320;50.256;19.026;2022-07-22T14:32:36;31.50;51.50
18388;DHT22;9320;50.256;19.026;2022-07-22T14:35:05;31.50;51.90
18388;DHT22;9320;50.256;19.026;2022-07-22T14:37:33;31.70;51.90
18388;DHT22;9320;50.256;19.026;2022-07-22T14:40:04;31.80;51.50
18388;DHT22;9320;50.256;19.026;2022-07-22T14:42:32;31.90;51.10
18388;DHT22;9320;50.256;19.026;2022-07-22T14:45:00;31.80;51.20
18388;DHT22;9320;50.256;19.026;2022-07-22T14:47:35;31.60;50.90
18388;DHT22;9320;50.256;19.026;2022-07-22T14:50:05;31.60;50.90
18388;DHT22;9320;50.256;19.026;2022-07-22T14:52:33;31.60;51.10
18388;DHT22;9320;50.256;19.026;2022-07-22T14:55:04;31.50;51.30
18388;DHT22;9320;50.256;19.026;2022-07-22T14:57:32;31.60;51.40
18388;DHT22;9320;50.256;19.026;2022-07-22T15:00:01;31.50;51.30
18388;DHT22;9320;50.256;19.026;2022-07-22T15:02:30;31.50;51.20
18388;DHT22;9320;50.256;19.026;2022-07-22T15:04:58;31.50;51.50
18388;DHT22;9320;50.256;19.026;2022-07-22T15:07:26;31.40;51.60
18388;DHT22;9320;50.256;19.026;2022-07-22T15:09:55;31.40;51.30
18388;DHT22;9320;50.256;19.026;2022-07-22T15:12:24;31.60;51.40
18388;DHT22;9320;50.256;19.026;2022-07-22T15:15:12;31.60;51.20
18388;DHT22;9320;50.256;19.026;2022-07-22T15:17:41;31.70;50.80
18388;DHT22;9320;50.256;19.026;2022-07-22T15:20:10;31.60;51.10
18388;DHT22;9320;50.256;19.026;2022-07-22T15:22:38;31.60;50.90
18388;DHT22;9320;50.256;19.026;2022-07-22T15:25:07;31.40;51.10
18388;DHT22;9320;50.256;19.026;2022-07-22T15:27:37;31.40;50.80
18388;DHT22;9320;50.256;19.026;2022-07-22T15:30:08;31.40;51.10
18388;DHT22;9320;50.256;19.026;2022-07-22T15:32:37;31.30;51.40
18388;DHT22;9320;50.256;19.026;2022-07-22T15:35:07;31.40;51.10
18388;DHT22;9320;50.256;19.026;2022-07-22T15:37:35;31.40;51.00
18388;DHT22;9320;50.256;19.026;2022-07-22T15:40:07;31.30;51.10
18388;DHT22;9320;50.256;19.026;2022-07-22T15:42:38;31.40;51.30
18388;DHT22;9320;50.256;19.026;2022-07-22T15:45:08;31.30;51.40
18388;DHT22;9320;50.256;19.026;2022-07-22T15:47:37;31.20;52.00